19:40
Airports
History
Links
Donate
Help keep this website running!
PayPal
Bitcoin
Information on this page is community maintained and may be outdated or inaccurate and is intended for reference only or PC simulator navigating!
Always use approved charts for navigating.
EDFC
Aschaffenburg
Aschaffenburg (EDFC)
Gro├čostheim, Bayern, Germany (63762)
(U)
Lat/Lng:49° 56' 19.68" N / 9° 3' 44.97" E
49.938801 / 9.062493
Elevation:410'ft 125mMSL
ID / ICAO:EDFC
Runways:1
Longest:(08-26) 836.9m 2,746ft Asphalt
Distance To
Airport ID:
Nearby VORs <50NM
Nearby NDBs
Nearby WeatherUpdated 03-28-17 19:20 GMT
Nearby weather at EDDF, Frankfurt am Main located 23.2 nautical miles from EDFC
Altimeter: 30.18
Visibility: 6.2 statute miles
Wind: 6 knots (210°)
Temp: 14°c 57°f
Humidity: 54.6%

METAR: EDDF 281920Z 21006KT CAVOK 14/05 Q1022 NOSIG

(Powered by phpweather)
Runway 08 / 26
Dimensions:836.9 x 20.1m 2746' x 66'ft
Surface:Asphalt
Runway 08 [A]Runway 26 [B]
Heading:079°TH 259°TH
Lat:
Lng:
49° 56' 17.32"N
9° 3' 24.15"E
49° 56' 22.05"N
9° 4' 5.8"E
Google Map
Nearby Airports
(C) Mainbullau 17.6 NM
EDFU SSE 162°
(C) Gelnhausen 18.2 NM
EDFG NNE 16°
(U) Michelstadt Odenwald 18.5 NM
EDFO SSW 192°
(C) Frankfurt-Egelsbach 18.8 NM
EDFE W 274°
(C) Frankfurt am Main 23.2 NM
EDDF (WX) WNW 284°
(C) Reichelsheim 28.8 NM
EDFB NNW 343°
(C) Oppenheim 31.4 NM
EDGP WSW 257°
VFR Chart
Flight Planning at SkyVector.com